createdAt,value
2018-06-05T00:00:58.506Z,54.16
2018-06-05T00:03:27.463Z,54.54
2018-06-05T00:05:56.380Z,54.39
2018-06-05T00:08:25.666Z,54.33
2018-06-05T00:10:54.858Z,54.81
2018-06-05T00:13:23.932Z,55.07
2018-06-05T00:15:52.836Z,55.35
2018-06-05T00:18:22.012Z,55.45
2018-06-05T00:20:50.783Z,55.54
2018-06-05T00:23:19.860Z,55.76
2018-06-05T00:25:50.578Z,56.01
2018-06-05T00:28:19.625Z,56.24
2018-06-05T00:30:48.773Z,56.01
2018-06-05T00:33:21.020Z,56.47
2018-06-05T00:35:49.882Z,56.44
2018-06-05T00:38:18.825Z,57.00
2018-06-05T00:40:47.814Z,57.15
2018-06-05T00:43:16.646Z,57.29
2018-06-05T00:45:53.156Z,57.17
2018-06-05T00:48:22.138Z,57.31
2018-06-05T00:50:50.925Z,57.58
2018-06-05T00:53:20.126Z,57.24
2018-06-05T00:55:49.205Z,57.77
2018-06-05T00:58:18.136Z,58.04
2018-06-05T01:00:47.152Z,57.69
2018-06-05T01:03:16.289Z,57.98
2018-06-05T01:05:45.302Z,57.97
2018-06-05T01:08:14.764Z,57.73
2018-06-05T01:10:43.808Z,57.87
2018-06-05T01:13:13.081Z,58.07
2018-06-05T01:15:41.973Z,58.04
2018-06-05T01:18:10.945Z,57.90
2018-06-05T01:20:40.114Z,58.14
2018-06-05T01:23:09.219Z,58.14
2018-06-05T01:25:38.391Z,57.92
2018-06-05T01:28:07.796Z,58.03
2018-06-05T01:30:36.694Z,58.08
2018-06-05T01:33:05.577Z,58.42
2018-06-05T01:35:34.463Z,58.35
2018-06-05T01:38:03.833Z,58.52
2018-06-05T01:40:32.859Z,58.17
2018-06-05T01:43:01.796Z,58.92
2018-06-05T01:45:30.712Z,58.36
2018-06-05T01:47:59.703Z,58.90
2018-06-05T01:50:28.654Z,58.75
2018-06-05T01:52:57.897Z,58.92
2018-06-05T01:55:27.083Z,58.89
2018-06-05T01:57:56.053Z,58.67
2018-06-05T02:00:24.825Z,59.01
2018-06-05T02:02:53.714Z,59.63
2018-06-05T02:05:22.566Z,59.34
2018-06-05T02:07:51.593Z,59.18
2018-06-05T02:10:20.732Z,59.31
2018-06-05T02:12:49.583Z,59.76
2018-06-05T02:15:18.611Z,59.58
2018-06-05T02:17:47.614Z,59.32
2018-06-05T02:20:16.598Z,59.53
2018-06-05T02:22:45.484Z,59.71
2018-06-05T02:25:14.484Z,60.00
2018-06-05T02:27:43.350Z,60.41
2018-06-05T02:30:12.139Z,60.64
2018-06-05T02:32:41.044Z,60.22
2018-06-05T02:35:10.048Z,60.79
2018-06-05T02:37:39.548Z,60.60
2018-06-05T02:40:09.392Z,60.63
2018-06-05T02:42:38.658Z,60.79
2018-06-05T02:45:07.694Z,60.33
2018-06-05T02:47:36.584Z,60.57
2018-06-05T02:50:05.773Z,60.32
2018-06-05T02:52:34.976Z,60.29
2018-06-05T02:55:03.993Z,60.53
2018-06-05T02:57:32.799Z,60.56
2018-06-05T03:00:02.331Z,60.35
2018-06-05T03:02:31.575Z,60.50
2018-06-05T03:05:00.491Z,60.80
2018-06-05T03:07:29.740Z,60.80
2018-06-05T03:09:58.857Z,61.24
2018-06-05T03:12:27.893Z,61.51
2018-06-05T03:14:57.013Z,61.40
2018-06-05T03:17:26.062Z,61.33
2018-06-05T03:19:55.149Z,61.53
2018-06-05T03:22:24.108Z,61.33
2018-06-05T03:24:53.031Z,61.22
2018-06-05T03:27:21.898Z,61.39
2018-06-05T03:29:50.989Z,61.69
2018-06-05T03:32:20.139Z,61.57
2018-06-05T03:34:49.405Z,61.85
2018-06-05T03:37:18.467Z,61.30
2018-06-05T03:39:47.711Z,61.42
2018-06-05T03:42:16.610Z,61.77
2018-06-05T03:44:46.086Z,61.75
2018-06-05T03:47:15.052Z,61.66
2018-06-05T03:49:43.910Z,61.60
2018-06-05T03:52:13.040Z,61.54
2018-06-05T03:54:41.955Z,61.31
2018-06-05T03:57:11.005Z,61.83
2018-06-05T03:59:39.971Z,62.01
2018-06-05T04:02:09.260Z,61.93
2018-06-05T04:04:38.670Z,60.90
2018-06-05T04:07:07.934Z,61.29
2018-06-05T04:09:36.960Z,60.91
2018-06-05T04:12:06.206Z,61.39
2018-06-05T04:14:35.374Z,60.94
2018-06-05T04:17:04.237Z,61.02
2018-06-05T04:19:33.188Z,61.02
2018-06-05T04:22:02.255Z,61.27
2018-06-05T04:24:31.494Z,61.47
2018-06-05T04:27:00.353Z,61.61
2018-06-05T04:29:29.327Z,61.54
2018-06-05T04:31:58.360Z,61.78
2018-06-05T04:34:27.467Z,61.95
2018-06-05T04:36:56.890Z,62.31
2018-06-05T04:39:25.861Z,62.42
2018-06-05T04:41:54.631Z,62.59
2018-06-05T04:44:23.952Z,62.63
2018-06-05T04:46:53.484Z,62.29
2018-06-05T04:49:22.528Z,62.56
2018-06-05T04:51:51.512Z,62.91
2018-06-05T04:54:20.637Z,62.70
2018-06-05T04:56:49.640Z,62.74
2018-06-05T04:59:18.740Z,62.67
2018-06-05T05:01:47.993Z,62.69
2018-06-05T05:04:17.429Z,62.75
2018-06-05T05:06:46.314Z,62.95
2018-06-05T05:09:15.551Z,63.55
2018-06-05T05:11:47.498Z,62.95
2018-06-05T05:14:16.833Z,62.89
2018-06-05T05:16:46.034Z,62.73
2018-06-05T05:19:15.011Z,62.99
2018-06-05T05:21:43.926Z,63.11
2018-06-05T05:24:12.994Z,62.20
2018-06-05T05:26:42.101Z,62.08
2018-06-05T05:29:11.128Z,62.15
2018-06-05T05:31:40.025Z,62.25
2018-06-05T05:34:08.884Z,62.16
2018-06-05T05:36:37.791Z,61.75
2018-06-05T05:39:08.245Z,61.28
2018-06-05T05:41:37.423Z,61.43
2018-06-05T05:44:06.393Z,61.84
2018-06-05T05:46:35.317Z,61.35
2018-06-05T05:49:04.285Z,60.91
2018-06-05T05:51:33.404Z,61.10
2018-06-05T05:54:02.832Z,61.43
2018-06-05T05:56:31.946Z,61.36
2018-06-05T05:59:01.024Z,61.44
2018-06-05T06:01:30.012Z,61.44
2018-06-05T06:03:59.261Z,60.72
2018-06-05T06:06:28.387Z,60.77
2018-06-05T06:08:57.378Z,60.42
2018-06-05T06:11:26.389Z,60.60
2018-06-05T06:13:55.351Z,59.65
2018-06-05T06:16:24.877Z,59.86
2018-06-05T06:18:54.307Z,59.90
2018-06-05T06:21:24.274Z,60.01
2018-06-05T06:23:53.107Z,59.42
2018-06-05T06:26:22.004Z,59.81
2018-06-05T06:28:51.261Z,59.09
2018-06-05T06:31:20.657Z,59.84
2018-06-05T06:33:49.560Z,59.19
2018-06-05T06:36:18.640Z,59.97
2018-06-05T06:38:47.582Z,58.64
2018-06-05T06:41:17.246Z,58.54
2018-06-05T06:43:46.286Z,59.14
2018-06-05T06:46:15.211Z,59.10
2018-06-05T06:48:44.431Z,59.18
2018-06-05T06:51:13.464Z,58.08
2018-06-05T06:53:42.491Z,58.24
2018-06-05T06:56:11.704Z,56.94
2018-06-05T06:58:40.592Z,57.21
2018-06-05T07:01:09.567Z,57.31
2018-06-05T07:03:38.614Z,56.81
2018-06-05T07:06:07.498Z,57.13
2018-06-05T07:08:36.478Z,57.52
2018-06-05T07:11:05.534Z,57.40
2018-06-05T07:13:34.409Z,56.71
2018-06-05T07:16:03.603Z,56.29
2018-06-05T07:18:32.783Z,55.94
2018-06-05T07:21:01.619Z,56.40
2018-06-05T07:23:30.750Z,55.91
2018-06-05T07:25:59.679Z,56.06
2018-06-05T07:28:28.672Z,55.76
2018-06-05T07:30:57.860Z,55.72
2018-06-05T07:33:26.777Z,54.59
2018-06-05T07:35:55.898Z,54.45
2018-06-05T07:38:25.169Z,54.50
2018-06-05T07:40:54.210Z,54.27
2018-06-05T07:43:23.471Z,54.20
2018-06-05T07:45:52.401Z,53.43
2018-06-05T07:48:21.242Z,54.55
2018-06-05T07:50:50.239Z,54.72
2018-06-05T07:53:19.752Z,53.95
2018-06-05T07:55:49.259Z,52.77
2018-06-05T07:58:18.449Z,53.12
2018-06-05T08:00:47.698Z,52.18
2018-06-05T08:03:16.703Z,52.25
2018-06-05T08:05:45.565Z,52.32
2018-06-05T08:08:14.644Z,51.83
2018-06-05T08:10:43.670Z,51.72
2018-06-05T08:13:12.608Z,52.04
2018-06-05T08:15:41.433Z,50.15
2018-06-05T08:18:10.201Z,51.23
2018-06-05T08:20:39.393Z,50.61
2018-06-05T08:23:08.539Z,50.38
2018-06-05T08:25:37.329Z,49.42
2018-06-05T08:28:06.202Z,49.42
2018-06-05T08:30:35.339Z,48.21
2018-06-05T08:33:04.440Z,48.36
2018-06-05T08:35:33.403Z,47.55
2018-06-05T08:38:02.432Z,49.38
2018-06-05T08:40:31.463Z,48.52
2018-06-05T08:43:04.026Z,46.74
2018-06-05T08:45:33.892Z,44.90
2018-06-05T08:48:08.729Z,45.16
2018-06-05T08:50:37.713Z,45.97
2018-06-05T08:53:06.879Z,45.01
2018-06-05T08:55:35.662Z,44.93
2018-06-05T08:58:05.462Z,45.35
2018-06-05T09:00:34.497Z,44.66
2018-06-05T09:03:03.946Z,45.30
2018-06-05T09:05:33.171Z,46.36
2018-06-05T09:08:02.277Z,45.79
2018-06-05T09:10:31.279Z,45.28
2018-06-05T09:13:00.486Z,46.66
2018-06-05T09:15:29.929Z,46.40
2018-06-05T09:17:58.845Z,45.91
2018-06-05T09:20:27.971Z,45.64
2018-06-05T09:22:57.134Z,45.83
2018-06-05T09:25:26.061Z,46.50
2018-06-05T09:27:55.154Z,46.58
2018-06-05T09:30:24.639Z,46.01
2018-06-05T09:32:53.568Z,44.27
2018-06-05T09:35:22.600Z,43.54
2018-06-05T09:37:55.100Z,42.60
2018-06-05T09:40:24.371Z,44.61
2018-06-05T09:42:53.765Z,45.80
2018-06-05T09:45:22.539Z,45.63
2018-06-05T09:47:51.805Z,43.53
2018-06-05T09:50:20.706Z,44.15
2018-06-05T09:52:49.749Z,43.71
2018-06-05T09:55:18.801Z,43.78
2018-06-05T09:57:48.234Z,42.60
2018-06-05T10:00:17.242Z,44.38
2018-06-05T10:02:46.570Z,44.62
2018-06-05T10:05:15.603Z,45.46
2018-06-05T10:07:44.699Z,44.92
2018-06-05T10:10:13.708Z,44.31
2018-06-05T10:12:42.765Z,46.55
2018-06-05T10:15:11.822Z,43.88
2018-06-05T10:17:40.959Z,43.27
2018-06-05T10:20:09.827Z,40.83
2018-06-05T10:22:38.971Z,41.79
2018-06-05T10:25:08.154Z,42.37
2018-06-05T10:27:37.068Z,43.83
2018-06-05T10:30:05.964Z,41.63
2018-06-05T10:32:34.787Z,42.32
2018-06-05T10:35:03.542Z,42.05
2018-06-05T10:37:32.627Z,41.35
2018-06-05T10:40:01.723Z,43.52
2018-06-05T10:42:30.662Z,41.95
2018-06-05T10:44:59.487Z,41.06
2018-06-05T10:47:28.322Z,39.26
2018-06-05T10:49:57.089Z,40.50
2018-06-05T10:52:26.167Z,38.44
2018-06-05T10:54:55.151Z,38.41
2018-06-05T10:57:24.300Z,38.96
2018-06-05T10:59:53.204Z,38.41
2018-06-05T11:02:22.136Z,39.24
2018-06-05T11:04:51.270Z,39.13
2018-06-05T11:07:20.277Z,39.02
2018-06-05T11:09:49.210Z,37.33
2018-06-05T11:12:18.512Z,38.55
2018-06-05T11:14:47.317Z,37.76
2018-06-05T11:17:17.405Z,36.04
2018-06-05T11:19:46.467Z,37.61
2018-06-05T11:22:15.851Z,35.87
2018-06-05T11:24:44.888Z,38.77
2018-06-05T11:27:14.350Z,35.87
2018-06-05T11:29:43.160Z,36.11
2018-06-05T11:32:12.634Z,35.73
2018-06-05T11:34:41.471Z,37.84
2018-06-05T11:37:10.315Z,37.92
2018-06-05T11:39:39.251Z,36.67
2018-06-05T11:42:08.071Z,36.42
2018-06-05T11:44:37.391Z,36.04
2018-06-05T11:47:06.629Z,34.09
2018-06-05T11:49:35.489Z,34.66
2018-06-05T11:52:04.544Z,34.73
2018-06-05T11:54:33.631Z,34.05
2018-06-05T11:57:02.516Z,35.37
2018-06-05T11:59:31.755Z,33.00
2018-06-05T12:02:00.866Z,34.48
2018-06-05T12:04:29.814Z,33.54
2018-06-05T12:06:58.857Z,33.82
2018-06-05T12:09:28.231Z,34.33
2018-06-05T12:11:57.379Z,34.44
2018-06-05T12:14:26.371Z,33.10
2018-06-05T12:16:55.464Z,34.54
2018-06-05T12:19:24.410Z,32.59
2018-06-05T12:21:53.555Z,32.21
2018-06-05T12:24:22.511Z,33.08
2018-06-05T12:26:51.587Z,35.64
2018-06-05T12:29:20.392Z,35.20
2018-06-05T12:31:49.239Z,35.39
2018-06-05T12:34:18.183Z,35.16
2018-06-05T12:36:47.282Z,37.30
2018-06-05T12:39:16.249Z,36.94
2018-06-05T12:41:45.466Z,35.35
2018-06-05T12:44:14.368Z,36.08
2018-06-05T12:46:44.278Z,36.62
2018-06-05T12:49:13.127Z,37.59
2018-06-05T12:51:42.438Z,35.84
2018-06-05T12:54:11.706Z,34.21
2018-06-05T12:56:41.117Z,35.07
2018-06-05T12:59:10.201Z,34.66
2018-06-05T13:01:39.322Z,35.78
2018-06-05T13:04:08.286Z,34.15
2018-06-05T13:06:37.242Z,31.31
2018-06-05T13:09:08.097Z,32.09
2018-06-05T13:11:37.062Z,32.81
2018-06-05T13:14:06.314Z,30.28
2018-06-05T13:16:35.222Z,29.33
2018-06-05T13:19:04.287Z,28.68
2018-06-05T13:21:33.296Z,26.80
2018-06-05T13:24:02.966Z,29.08
2018-06-05T13:26:31.985Z,28.65
2018-06-05T13:29:00.866Z,26.89
2018-06-05T13:31:29.841Z,26.96
2018-06-05T13:33:58.773Z,28.53
2018-06-05T13:36:29.643Z,27.23
2018-06-05T13:39:00.040Z,27.18
2018-06-05T13:41:29.967Z,27.01
2018-06-05T13:44:00.160Z,27.46
2018-06-05T13:46:29.509Z,29.34
2018-06-05T13:49:00.215Z,30.30
2018-06-05T13:51:30.415Z,30.65
2018-06-05T13:54:00.179Z,29.47
2018-06-05T13:56:29.362Z,30.40
2018-06-05T13:58:58.357Z,28.97
2018-06-05T14:01:27.695Z,29.80
2018-06-05T14:03:56.703Z,31.65
2018-06-05T14:06:25.681Z,31.92
2018-06-05T14:08:54.568Z,32.17
2018-06-05T14:11:23.453Z,32.89
2018-06-05T14:13:53.434Z,30.93
2018-06-05T14:16:22.631Z,31.40
2018-06-05T14:18:52.078Z,31.48
2018-06-05T14:21:21.098Z,31.89
2018-06-05T14:23:50.117Z,32.13
2018-06-05T14:26:19.442Z,31.64
2018-06-05T14:28:48.763Z,31.76
2018-06-05T14:31:17.839Z,30.84
2018-06-05T14:33:46.688Z,30.96
2018-06-05T14:36:15.625Z,31.01
2018-06-05T14:38:44.488Z,31.31
2018-06-05T14:41:13.471Z,30.61
2018-06-05T14:43:42.684Z,32.21
2018-06-05T14:46:12.218Z,32.77
2018-06-05T14:48:41.691Z,33.42
2018-06-05T14:51:10.711Z,30.78
2018-06-05T14:53:40.019Z,29.53
2018-06-05T14:56:08.914Z,30.03
2018-06-05T14:58:37.764Z,31.64
2018-06-05T15:01:07.270Z,31.94
2018-06-05T15:03:36.318Z,32.31
2018-06-05T15:06:05.379Z,32.14
2018-06-05T15:08:34.487Z,33.04
2018-06-05T15:11:03.433Z,32.33
2018-06-05T15:13:32.547Z,32.37
2018-06-05T15:16:01.612Z,32.33
2018-06-05T15:18:30.494Z,32.55
2018-06-05T15:20:59.833Z,31.50
2018-06-05T15:23:28.749Z,31.45
2018-06-05T15:25:57.847Z,32.22
2018-06-05T15:28:27.232Z,33.50
2018-06-05T15:30:56.453Z,32.53
2018-06-05T15:33:25.514Z,32.97
2018-06-05T15:35:54.571Z,32.50
2018-06-05T15:38:23.621Z,33.18
2018-06-05T15:40:53.891Z,33.66
2018-06-05T15:43:23.038Z,32.57
2018-06-05T15:45:51.876Z,32.86
2018-06-05T15:48:21.128Z,33.22
2018-06-05T15:50:50.302Z,32.68
2018-06-05T15:53:19.239Z,31.81
2018-06-05T15:55:48.108Z,31.41
2018-06-05T15:58:17.915Z,32.55
2018-06-05T16:00:47.221Z,33.05
2018-06-05T16:03:16.924Z,32.63
2018-06-05T16:05:52.265Z,33.12
2018-06-05T16:08:22.074Z,31.65
2018-06-05T16:10:51.643Z,31.33
2018-06-05T16:13:22.570Z,31.08
2018-06-05T16:15:52.856Z,31.92
2018-06-05T16:18:22.040Z,31.67
2018-06-05T16:20:51.350Z,31.03
2018-06-05T16:23:23.185Z,31.50
2018-06-05T16:25:55.082Z,32.41
2018-06-05T16:28:37.039Z,31.09
2018-06-05T16:37:25.789Z,31.98
2018-06-05T16:39:54.920Z,34.46
2018-06-05T16:42:23.906Z,34.16
2018-06-05T16:44:52.896Z,35.37
2018-06-05T16:47:21.821Z,33.75
2018-06-05T16:49:51.216Z,34.64
2018-06-05T16:52:20.196Z,34.34
2018-06-05T16:54:49.131Z,33.89
2018-06-05T16:57:18.260Z,35.65
2018-06-05T16:59:47.234Z,37.27
2018-06-05T17:02:15.909Z,38.62
2018-06-05T17:04:44.651Z,38.26
2018-06-05T17:07:14.149Z,38.50
2018-06-05T17:09:43.362Z,38.41
2018-06-05T17:12:12.519Z,38.19
2018-06-05T17:14:41.283Z,37.45
2018-06-05T17:17:10.211Z,36.53
2018-06-05T17:19:39.239Z,36.97
2018-06-05T17:22:08.195Z,36.22
2018-06-05T17:24:37.204Z,37.12
2018-06-05T17:27:06.300Z,37.07
2018-06-05T17:29:35.200Z,38.57
2018-06-05T17:32:03.916Z,39.43
2018-06-05T17:34:32.762Z,39.76
2018-06-05T17:37:01.526Z,40.09
2018-06-05T17:39:30.869Z,40.45
2018-06-05T17:42:00.042Z,40.18
2018-06-05T17:44:29.442Z,39.87
2018-06-05T17:46:58.285Z,38.77
2018-06-05T17:49:27.661Z,37.53
2018-06-05T17:51:56.847Z,36.89
2018-06-05T17:54:25.638Z,36.01
2018-06-05T17:56:54.369Z,35.05
2018-06-05T17:59:23.523Z,35.16
2018-06-05T18:01:52.674Z,34.65
2018-06-05T18:04:21.679Z,33.82
2018-06-05T18:06:50.595Z,34.39
2018-06-05T18:09:19.523Z,34.77
2018-06-05T18:11:48.637Z,34.09
2018-06-05T18:14:17.758Z,34.66
2018-06-05T18:16:46.722Z,35.61
2018-06-05T18:19:15.794Z,35.46
2018-06-05T18:21:44.712Z,36.77
2018-06-05T18:24:13.785Z,36.93
2018-06-05T18:26:42.721Z,37.36
2018-06-05T18:29:11.869Z,38.16
2018-06-05T18:31:40.820Z,38.33
2018-06-05T18:34:09.821Z,38.56
2018-06-05T18:36:38.621Z,39.50
2018-06-05T18:39:09.058Z,39.52
2018-06-05T18:41:37.949Z,40.27
2018-06-05T18:44:06.958Z,40.75
2018-06-05T18:46:35.868Z,41.06
2018-06-05T18:49:04.810Z,40.82
2018-06-05T18:51:34.735Z,40.86
2018-06-05T18:54:03.683Z,41.09
2018-06-05T18:56:32.586Z,41.72
2018-06-05T18:59:01.784Z,42.31
2018-06-05T19:01:30.969Z,43.09
2018-06-05T19:04:00.019Z,43.38
2018-06-05T19:06:29.053Z,43.69
2018-06-05T19:08:58.230Z,44.14
2018-06-05T19:11:27.150Z,45.00
2018-06-05T19:13:56.260Z,43.89
2018-06-05T19:16:25.438Z,44.22
2018-06-05T19:18:54.374Z,44.43
2018-06-05T19:21:23.403Z,44.81
2018-06-05T19:23:52.569Z,44.93
2018-06-05T19:26:21.500Z,44.94
2018-06-05T19:28:50.383Z,45.01
2018-06-05T19:31:19.907Z,45.63
2018-06-05T19:33:48.681Z,45.29
2018-06-05T19:36:17.520Z,45.29
2018-06-05T19:38:46.590Z,45.10
2018-06-05T19:41:15.505Z,45.38
2018-06-05T19:43:44.451Z,45.70
2018-06-05T19:46:13.549Z,45.78
2018-06-05T19:48:42.496Z,45.58
2018-06-05T19:51:11.457Z,45.84
2018-06-05T19:53:40.574Z,45.77
2018-06-05T19:56:10.030Z,46.21
2018-06-05T19:58:39.120Z,46.10
2018-06-05T20:01:08.307Z,46.62
2018-06-05T20:03:37.395Z,46.36
2018-06-05T20:06:06.441Z,46.48
2018-06-05T20:08:35.537Z,46.99
2018-06-05T20:11:04.426Z,46.92
2018-06-05T20:13:33.400Z,46.71
2018-06-05T20:16:02.328Z,46.95
2018-06-05T20:18:31.299Z,47.09
2018-06-05T20:21:00.203Z,47.25
2018-06-05T20:23:29.192Z,47.50
2018-06-05T20:25:58.083Z,47.45
2018-06-05T20:28:26.900Z,47.94
2018-06-05T20:30:55.861Z,47.81
2018-06-05T20:33:25.250Z,48.26
2018-06-05T20:35:54.511Z,48.22
2018-06-05T20:38:23.309Z,48.39
2018-06-05T20:40:52.925Z,48.60
2018-06-05T20:43:22.032Z,48.52
2018-06-05T20:45:51.295Z,48.54
2018-06-05T20:48:20.367Z,49.21
2018-06-05T20:50:49.330Z,49.56
2018-06-05T20:53:18.402Z,50.10
2018-06-05T20:55:47.470Z,49.95
2018-06-05T20:58:16.295Z,50.28
2018-06-05T21:00:45.297Z,50.73
2018-06-05T21:03:14.395Z,50.34
2018-06-05T21:05:43.516Z,50.63
2018-06-05T21:08:12.380Z,50.71
2018-06-05T21:10:41.181Z,50.88
2018-06-05T21:13:10.049Z,51.48
2018-06-05T21:15:39.109Z,51.52
2018-06-05T21:18:07.903Z,51.68
2018-06-05T21:20:36.843Z,51.91
2018-06-05T21:23:05.874Z,52.13
2018-06-05T21:25:34.877Z,52.64
2018-06-05T21:28:03.798Z,52.60
2018-06-05T21:30:32.777Z,53.06
2018-06-05T21:33:01.831Z,53.02
2018-06-05T21:35:30.751Z,52.73
2018-06-05T21:37:59.720Z,53.41
2018-06-05T21:40:28.647Z,53.62
2018-06-05T21:42:57.712Z,53.99
2018-06-05T21:45:26.627Z,54.30
2018-06-05T21:47:55.525Z,54.36
2018-06-05T21:50:24.370Z,54.81
2018-06-05T21:52:53.139Z,54.50
2018-06-05T21:55:21.906Z,55.22
2018-06-05T21:57:50.688Z,55.32
2018-06-05T22:00:22.979Z,55.69
2018-06-05T22:02:51.761Z,55.66
2018-06-05T22:05:20.632Z,55.49
2018-06-05T22:07:49.772Z,55.64
2018-06-05T22:10:18.473Z,55.91
2018-06-05T22:12:47.271Z,56.39
2018-06-05T22:15:16.019Z,56.88
2018-06-05T22:17:44.940Z,56.79
2018-06-05T22:20:13.958Z,56.66
2018-06-05T22:22:43.005Z,56.68
2018-06-05T22:25:12.026Z,57.29
2018-06-05T22:27:40.815Z,56.91
2018-06-05T22:30:09.630Z,57.06
2018-06-05T22:32:38.437Z,57.91
2018-06-05T22:35:07.668Z,57.90
2018-06-05T22:37:36.700Z,58.76
2018-06-05T22:40:05.661Z,58.42
2018-06-05T22:42:34.590Z,58.94
2018-06-05T22:45:03.385Z,58.80
2018-06-05T22:47:32.634Z,58.62
2018-06-05T22:50:01.442Z,59.03
2018-06-05T22:52:30.350Z,59.02
2018-06-05T22:54:59.238Z,58.65
2018-06-05T22:57:27.986Z,58.90
2018-06-05T22:59:56.907Z,59.37
2018-06-05T23:02:25.970Z,59.43
2018-06-05T23:04:54.685Z,59.80
2018-06-05T23:07:23.455Z,59.84
2018-06-05T23:09:52.369Z,59.78
2018-06-05T23:12:21.113Z,60.10
2018-06-05T23:14:49.968Z,60.24
2018-06-05T23:17:18.917Z,59.88
2018-06-05T23:19:47.921Z,60.33
2018-06-05T23:22:16.750Z,60.58
2018-06-05T23:24:45.657Z,60.87
2018-06-05T23:27:14.576Z,61.32
2018-06-05T23:29:43.503Z,61.96
2018-06-05T23:32:12.261Z,61.84
2018-06-05T23:34:41.181Z,61.51
2018-06-05T23:37:10.002Z,61.68
2018-06-05T23:39:38.855Z,61.97
2018-06-05T23:42:07.826Z,62.22
2018-06-05T23:44:36.744Z,62.06
2018-06-05T23:47:05.644Z,61.81
2018-06-05T23:49:34.525Z,62.01
2018-06-05T23:52:03.338Z,62.49
2018-06-05T23:54:32.157Z,62.73
2018-06-05T23:57:01.170Z,62.93
2018-06-05T23:59:29.910Z,62.57
